Time;durP1;ratioP1;P1;durP2;ratioP2;P2;SDS_P1;SDS_P2;PMS_P1;PMS_P2;Temp;Humidity;BMP_temperature;BMP_pressure;BME280_temperature;BME280_humidity;BME280_pressure;Samples;Min_cycle;Max_cycle;Signal;HPM_P1;HPM_P2
2023/04/25 00:01:46;;;;;;;6.45;4.32;;;11.30;99.60;;;;;;6127125;23;20065;-72
2023/04/25 00:04:12;;;;;;;9.95;5.00;;;11.30;99.80;;;;;;6126827;23;20436;-72
2023/04/25 00:06:39;;;;;;;5.05;4.10;;;11.20;99.80;;;;;;6126808;23;20001;-72
2023/04/25 00:09:07;;;;;;;4.57;4.10;;;11.20;99.90;;;;;;6126742;23;20002;-72
2023/04/25 00:11:33;;;;;;;5.57;3.88;;;11.10;99.90;;;;;;6126509;23;20038;-72
2023/04/25 00:14:01;;;;;;;8.10;4.50;;;11.10;99.90;;;;;;6126910;23;20085;-72
2023/04/25 00:16:28;;;;;;;6.38;3.63;;;11.10;99.90;;;;;;6126819;23;20336;-72
2023/04/25 00:18:54;;;;;;;7.72;4.07;;;11.10;99.90;;;;;;6127089;23;20004;-72
2023/04/25 00:21:21;;;;;;;4.13;3.65;;;11.10;99.90;;;;;;6126742;23;20010;-72
2023/04/25 00:23:47;;;;;;;4.80;4.30;;;11.00;99.90;;;;;;6127061;23;20332;-72
2023/04/25 00:26:13;;;;;;;5.47;3.92;;;11.10;99.90;;;;;;6126732;23;20081;-72
2023/04/25 00:28:40;;;;;;;5.18;3.47;;;11.10;99.90;;;;;;6126906;23;20010;-72
2023/04/25 00:31:05;;;;;;;4.72;3.95;;;11.10;99.90;;;;;;6126552;23;20052;-72
2023/04/25 00:33:31;;;;;;;5.68;4.40;;;11.10;99.90;;;;;;6126903;23;20033;-72
2023/04/25 00:35:57;;;;;;;6.68;4.47;;;11.10;99.90;;;;;;6126346;23;20425;-72
2023/04/25 00:38:22;;;;;;;6.22;4.40;;;11.10;99.90;;;;;;6126702;23;20002;-72
2023/04/25 00:40:48;;;;;;;4.30;3.90;;;11.10;99.90;;;;;;6126717;23;20002;-72
2023/04/25 00:43:14;;;;;;;11.80;4.10;;;11.10;99.90;;;;;;6126262;23;19998;-72
2023/04/25 00:45:40;;;;;;;10.00;4.22;;;11.10;99.90;;;;;;6126095;23;20010;-72
2023/04/25 00:48:06;;;;;;;9.05;4.40;;;11.10;99.90;;;;;;6126727;23;20006;-72
2023/04/25 00:50:36;;;;;;;7.47;4.75;;;11.10;99.90;;;;;;6126417;23;20018;-72
2023/04/25 00:53:03;;;;;;;7.88;4.43;;;11.10;99.90;;;;;;6126473;23;20002;-72
2023/04/25 00:55:31;;;;;;;5.15;4.32;;;11.10;99.90;;;;;;6126345;23;20010;-72
2023/04/25 00:57:57;;;;;;;6.55;4.28;;;11.10;99.90;;;;;;6124868;23;20046;-72
2023/04/25 01:00:23;;;;;;;8.00;4.65;;;11.10;99.90;;;;;;6122677;23;20002;-72
2023/04/25 01:02:50;;;;;;;6.32;3.90;;;11.20;99.90;;;;;;6123071;23;20014;-72
2023/04/25 01:05:15;;;;;;;6.10;3.95;;;11.10;99.90;;;;;;6125483;23;20376;-72
2023/04/25 01:07:41;;;;;;;8.55;4.10;;;11.20;99.90;;;;;;6126221;23;20036;-72
2023/04/25 01:10:08;;;;;;;4.95;3.40;;;11.20;99.90;;;;;;6126211;23;20014;-72
2023/04/25 01:12:34;;;;;;;4.32;3.35;;;11.20;99.90;;;;;;6125849;23;20003;-72
2023/04/25 01:15:00;;;;;;;6.82;2.80;;;11.20;99.90;;;;;;6126342;23;20448;-72
2023/04/25 01:17:27;;;;;;;4.75;2.95;;;11.20;99.90;;;;;;6126629;23;20013;-72
2023/04/25 01:19:53;;;;;;;4.18;2.53;;;11.20;99.90;;;;;;6126228;23;20006;-72
2023/04/25 01:22:18;;;;;;;4.28;2.70;;;11.20;99.90;;;;;;6125870;23;20035;-72
2023/04/25 01:24:45;;;;;;;6.18;3.05;;;11.20;99.90;;;;;;6126362;23;20325;-72
2023/04/25 01:27:11;;;;;;;5.93;2.50;;;11.20;99.90;;;;;;6126338;23;20134;-72
2023/04/25 01:29:37;;;;;;;3.25;2.72;;;11.20;99.90;;;;;;6125633;23;20005;-72
2023/04/25 01:32:04;;;;;;;3.20;2.38;;;11.20;99.90;;;;;;6126137;23;20330;-72
2023/04/25 01:34:30;;;;;;;12.82;3.65;;;11.20;99.90;;;;;;6125977;23;19998;-73
2023/04/25 01:36:55;;;;;;;7.13;3.10;;;11.20;99.90;;;;;;6125634;23;20072;-72
2023/04/25 01:39:21;;;;;;;4.40;2.90;;;11.20;99.90;;;;;;6125777;23;20002;-72
2023/04/25 01:41:47;;;;;;;5.28;3.00;;;11.20;99.90;;;;;;6125817;23;20016;-73
2023/04/25 01:44:14;;;;;;;3.78;2.90;;;11.20;99.90;;;;;;6125666;23;20049;-72
2023/04/25 01:46:40;;;;;;;6.30;2.80;;;11.10;99.90;;;;;;6100248;23;20361;-72
2023/04/25 01:49:06;;;;;;;4.05;2.60;;;11.10;99.90;;;;;;6126338;23;20065;-72
2023/04/25 01:51:32;;;;;;;3.80;2.67;;;11.20;99.90;;;;;;6125940;23;20077;-72
2023/04/25 01:53:58;;;;;;;3.35;2.60;;;11.20;99.90;;;;;;6125607;23;20029;-72
2023/04/25 01:56:24;;;;;;;3.55;2.70;;;11.10;99.90;;;;;;6125370;23;20010;-72
2023/04/25 01:58:51;;;;;;;4.45;2.67;;;11.10;99.90;;;;;;6125598;23;20061;-72
2023/04/25 02:01:17;;;;;;;6.18;2.58;;;11.10;99.90;;;;;;6126184;23;20006;-72
2023/04/25 02:03:43;;;;;;;4.72;2.70;;;11.10;99.90;;;;;;6125616;23;20005;-72
2023/04/25 02:06:09;;;;;;;5.40;3.13;;;11.10;99.90;;;;;;6125838;23;20002;-72
2023/04/25 02:08:34;;;;;;;6.78;3.03;;;11.10;99.90;;;;;;6125784;23;20105;-72
2023/04/25 02:11:00;;;;;;;3.58;2.75;;;11.10;99.90;;;;;;6125971;23;20002;-72
2023/04/25 02:13:26;;;;;;;10.23;2.90;;;11.10;99.90;;;;;;6126214;23;20064;-72
2023/04/25 02:15:51;;;;;;;6.78;3.22;;;11.00;99.90;;;;;;6126036;23;20429;-72
2023/04/25 02:18:17;;;;;;;5.35;2.78;;;11.00;99.90;;;;;;6125826;23;20002;-72
2023/04/25 02:20:44;;;;;;;3.83;2.47;;;11.10;99.90;;;;;;6125966;23;20041;-72
2023/04/25 02:23:09;;;;;;;6.80;2.70;;;11.00;99.90;;;;;;6125878;23;20309;-72
2023/04/25 02:25:35;;;;;;;5.60;2.65;;;11.10;99.90;;;;;;6126037;23;20078;-72
2023/04/25 02:28:01;;;;;;;4.90;2.65;;;11.10;99.90;;;;;;6126220;23;20417;-72
2023/04/25 02:30:27;;;;;;;4.95;2.55;;;11.00;99.90;;;;;;6125592;23;20081;-72
2023/04/25 02:32:53;;;;;;;3.30;2.70;;;11.00;99.90;;;;;;6126016;23;20002;-73
2023/04/25 02:35:18;;;;;;;2.78;2.13;;;11.00;99.90;;;;;;6125889;23;20018;-72
2023/04/25 02:37:44;;;;;;;3.28;2.90;;;10.90;99.90;;;;;;6125753;23;20005;-72
2023/04/25 02:40:11;;;;;;;4.68;2.42;;;10.90;99.90;;;;;;6125566;23;20615;-72
2023/04/25 02:42:36;;;;;;;3.15;2.35;;;10.90;99.90;;;;;;6126126;23;20092;-72
2023/04/25 02:45:02;;;;;;;2.65;2.17;;;10.90;99.90;;;;;;6125830;23;20029;-72
2023/04/25 02:47:29;;;;;;;4.93;1.38;;;10.90;99.90;;;;;;6125643;23;20057;-72
2023/04/25 02:49:54;;;;;;;2.65;1.50;;;10.90;99.90;;;;;;6125449;23;20010;-72
2023/04/25 02:52:21;;;;;;;3.60;1.15;;;10.90;99.90;;;;;;6125461;23;20082;-72
2023/04/25 02:54:46;;;;;;;2.38;0.93;;;10.90;99.90;;;;;;6125747;23;20052;-72
2023/04/25 02:57:12;;;;;;;4.03;1.30;;;11.00;99.90;;;;;;6125826;23;20002;-73
2023/04/25 02:59:38;;;;;;;4.82;1.58;;;11.00;99.90;;;;;;6125821;23;20002;-72
2023/04/25 03:02:04;;;;;;;2.13;1.33;;;11.00;99.90;;;;;;6099785;23;20061;-72
2023/04/25 03:04:29;;;;;;;2.75;2.13;;;11.10;99.90;;;;;;6125991;23;20006;-72
2023/04/25 03:06:55;;;;;;;3.88;2.08;;;11.00;99.90;;;;;;6125812;23;20460;-72
2023/04/25 03:09:21;;;;;;;7.97;2.00;;;11.10;99.90;;;;;;6125968;23;19998;-72
2023/04/25 03:11:47;;;;;;;5.43;1.70;;;11.00;99.90;;;;;;6125789;23;20002;-72
2023/04/25 03:14:13;;;;;;;4.20;2.60;;;11.00;99.90;;;;;;6125785;23;20002;-73
2023/04/25 03:16:39;;;;;;;3.67;2.50;;;11.10;99.90;;;;;;6127350;23;20145;-72
2023/04/25 03:19:05;;;;;;;2.60;1.95;;;11.00;99.90;;;;;;6127592;23;20029;-72
2023/04/25 03:21:33;;;;;;;2.85;2.30;;;11.00;99.90;;;;;;6126965;23;20006;-72
2023/04/25 03:23:59;;;;;;;3.00;2.08;;;11.00;99.90;;;;;;6127641;23;19998;-72
2023/04/25 03:26:25;;;;;;;5.15;1.75;;;11.00;99.90;;;;;;6127374;23;19998;-72
2023/04/25 03:28:50;;;;;;;3.35;1.20;;;11.00;99.90;;;;;;6127475;23;20009;-72
2023/04/25 03:31:16;;;;;;;2.30;1.10;;;11.00;99.90;;;;;;6127017;23;20001;-72
2023/04/25 03:33:42;;;;;;;3.80;1.50;;;11.00;99.90;;;;;;6127342;23;20002;-72
2023/04/25 03:36:08;;;;;;;3.13;1.70;;;11.00;99.90;;;;;;6127039;23;20010;-72
2023/04/25 03:38:34;;;;;;;2.85;1.73;;;11.00;99.90;;;;;;6127354;23;20077;-72
2023/04/25 03:41:01;;;;;;;2.35;1.75;;;11.10;99.90;;;;;;6127442;23;20329;-72
2023/04/25 03:43:27;;;;;;;4.80;1.77;;;11.10;99.90;;;;;;6127172;23;20069;-72
2023/04/25 03:45:52;;;;;;;4.07;1.77;;;11.00;99.90;;;;;;6127245;23;20025;-73
2023/04/25 03:48:21;;;;;;;4.47;1.75;;;11.00;99.90;;;;;;6101199;23;20032;-72
2023/04/25 03:50:47;;;;;;;2.83;2.10;;;11.00;99.90;;;;;;6126855;23;20025;-72
2023/04/25 03:53:13;;;;;;;4.07;2.05;;;11.00;99.90;;;;;;6127051;23;20002;-72
2023/04/25 03:55:38;;;;;;;3.95;1.80;;;10.90;99.90;;;;;;6127258;23;20014;-72
2023/04/25 03:58:04;;;;;;;5.00;1.90;;;10.90;99.90;;;;;;6127538;23;20070;-72
2023/04/25 04:00:30;;;;;;;5.30;2.10;;;10.90;99.90;;;;;;6126899;23;20012;-72
2023/04/25 04:02:56;;;;;;;2.25;1.45;;;10.80;99.90;;;;;;6127111;23;20073;-72
2023/04/25 04:05:22;;;;;;;4.05;1.73;;;10.90;99.90;;;;;;6126972;23;20002;-72
2023/04/25 04:07:47;;;;;;;6.40;1.65;;;10.90;99.90;;;;;;6125804;23;20042;-72
2023/04/25 04:10:13;;;;;;;4.57;1.77;;;10.90;99.90;;;;;;6127199;23;20021;-72
2023/04/25 04:12:39;;;;;;;6.32;2.17;;;10.90;99.90;;;;;;6126768;23;20460;-72
2023/04/25 04:15:06;;;;;;;4.18;2.25;;;10.90;99.90;;;;;;6126917;23;20029;-72
2023/04/25 04:17:32;;;;;;;5.68;2.50;;;10.90;99.90;;;;;;6127413;23;20001;-72
2023/04/25 04:19:58;;;;;;;3.33;2.13;;;10.80;99.90;;;;;;6126433;23;20006;-72
2023/04/25 04:22:24;;;;;;;6.85;2.28;;;10.80;99.90;;;;;;6126830;23;20080;-73
2023/04/25 04:24:50;;;;;;;2.55;2.20;;;10.70;99.90;;;;;;6126617;23;20013;-73
2023/04/25 04:27:17;;;;;;;4.88;2.38;;;10.70;99.90;;;;;;6126230;23;20077;-72
2023/04/25 04:29:44;;;;;;;2.45;1.75;;;10.70;99.90;;;;;;6126824;23;20444;-72
2023/04/25 04:32:09;;;;;;;5.07;1.90;;;10.60;99.90;;;;;;6126304;23;20306;-73
2023/04/25 04:34:35;;;;;;;1.75;1.55;;;10.60;99.90;;;;;;6126316;23;20009;-73
2023/04/25 04:37:02;;;;;;;4.13;1.58;;;10.60;99.90;;;;;;6126548;23;20006;-73
2023/04/25 04:39:28;;;;;;;2.65;1.80;;;10.60;99.90;;;;;;6126348;23;20491;-72
2023/04/25 04:41:54;;;;;;;2.05;1.50;;;10.60;99.90;;;;;;6126305;23;20006;-73
2023/04/25 04:44:20;;;;;;;5.65;1.58;;;10.60;99.90;;;;;;6126433;23;20118;-73
2023/04/25 04:46:46;;;;;;;2.30;1.50;;;10.50;99.70;;;;;;6126202;23;20444;-73
2023/04/25 04:49:13;;;;;;;2.05;1.55;;;10.50;99.70;;;;;;6126603;23;20025;-73
2023/04/25 04:51:41;;;;;;;2.60;1.60;;;10.50;99.60;;;;;;6118869;23;20398;-73
2023/04/25 04:54:06;;;;;;;2.15;1.60;;;10.50;99.70;;;;;;6155561;23;20117;-73
2023/04/25 04:56:32;;;;;;;5.72;1.50;;;10.50;99.70;;;;;;6155438;23;20041;-73
2023/04/25 04:58:59;;;;;;;5.00;1.80;;;10.40;99.80;;;;;;6155975;23;20024;-73
2023/04/25 05:01:26;;;;;;;3.45;1.60;;;10.40;99.90;;;;;;6155786;23;20356;-72
2023/04/25 05:03:52;;;;;;;4.28;1.77;;;10.40;99.90;;;;;;6155675;23;20439;-73
2023/04/25 05:06:20;;;;;;;2.35;1.70;;;10.40;99.90;;;;;;6155580;23;20429;-73
2023/04/25 05:08:46;;;;;;;5.10;2.00;;;10.40;99.90;;;;;;6155984;23;20421;-73
2023/04/25 05:11:12;;;;;;;3.53;1.98;;;10.40;99.90;;;;;;6155836;23;20076;-73
2023/04/25 05:13:38;;;;;;;5.43;2.50;;;10.40;99.90;;;;;;6155913;23;20009;-73
2023/04/25 05:16:03;;;;;;;8.55;1.90;;;10.50;99.90;;;;;;6155534;23;20085;-73
2023/04/25 05:18:30;;;;;;;4.40;2.00;;;10.50;99.90;;;;;;6129427;23;20032;-73
2023/04/25 05:20:55;;;;;;;3.30;2.13;;;10.50;99.90;;;;;;6155739;23;20428;-73
2023/04/25 05:23:21;;;;;;;4.93;2.45;;;10.60;99.90;;;;;;6155519;23;19998;-73
2023/04/25 05:25:47;;;;;;;4.25;2.60;;;10.60;99.90;;;;;;6155730;23;20012;-72
2023/04/25 05:28:13;;;;;;;3.38;2.30;;;10.60;99.90;;;;;;6155453;23;20001;-72
2023/04/25 05:30:39;;;;;;;4.72;2.83;;;10.70;99.90;;;;;;6155555;23;20386;-72
2023/04/25 05:33:05;;;;;;;5.03;2.20;;;10.70;99.90;;;;;;6155339;23;20012;-72
2023/04/25 05:35:30;;;;;;;3.60;1.85;;;10.80;99.90;;;;;;6155191;23;20100;-73
2023/04/25 05:37:56;;;;;;;4.93;1.40;;;10.80;99.90;;;;;;6155776;23;20013;-73
2023/04/25 05:40:22;;;;;;;1.77;1.30;;;10.90;99.90;;;;;;6155422;23;20336;-73
2023/04/25 05:42:48;;;;;;;2.13;1.20;;;10.90;99.90;;;;;;6155678;23;20009;-73
2023/04/25 05:45:13;;;;;;;5.18;1.33;;;11.00;99.90;;;;;;6155582;23;20008;-73
2023/04/25 05:47:39;;;;;;;2.53;1.17;;;11.00;99.90;;;;;;6155571;23;20053;-73
2023/04/25 05:50:06;;;;;;;2.70;1.50;;;11.10;99.90;;;;;;6154803;23;20006;-72
2023/04/25 05:52:31;;;;;;;4.40;1.25;;;11.20;99.90;;;;;;6148365;23;20095;-72
2023/04/25 05:54:57;;;;;;;3.95;1.63;;;11.20;99.90;;;;;;6125950;23;20014;-71
2023/04/25 05:57:27;;;;;;;1.33;1.10;;;11.30;99.90;;;;;;6125786;23;20029;-72
2023/04/25 05:59:53;;;;;;;1.75;1.00;;;11.40;99.90;;;;;;6125631;23;20002;-73
2023/04/25 06:02:22;;;;;;;2.75;1.10;;;11.50;99.90;;;;;;6125996;23;20002;-72
2023/04/25 06:04:51;;;;;;;3.55;1.20;;;11.60;99.90;;;;;;6125513;23;20507;-72
2023/04/25 06:07:17;;;;;;;2.00;1.00;;;11.70;99.90;;;;;;6125412;23;20005;-72
2023/04/25 06:09:44;;;;;;;3.53;0.98;;;11.70;99.90;;;;;;6124195;23;20013;-73
2023/04/25 06:12:10;;;;;;;2.30;1.02;;;11.80;99.90;;;;;;6123700;23;20096;-72
2023/04/25 06:14:36;;;;;;;11.75;1.25;;;11.80;99.90;;;;;;6125485;23;20041;-72
2023/04/25 06:17:08;;;;;;;2.38;1.27;;;11.90;99.90;;;;;;6125933;23;20020;-72
2023/04/25 06:19:35;;;;;;;2.65;1.00;;;11.90;99.90;;;;;;6125111;23;20013;-72
2023/04/25 06:22:01;;;;;;;4.30;1.05;;;11.90;99.90;;;;;;6124968;23;20089;-72
2023/04/25 06:24:27;;;;;;;5.10;1.00;;;12.00;99.90;;;;;;6124829;23;20002;-72
2023/04/25 06:26:52;;;;;;;3.85;1.10;;;12.00;99.80;;;;;;6125433;23;20006;-72
2023/04/25 06:29:18;;;;;;;4.45;1.10;;;12.00;99.80;;;;;;6123958;23;20006;-71
2023/04/25 06:31:44;;;;;;;2.17;1.10;;;12.00;99.70;;;;;;6125259;23;20069;-71
2023/04/25 06:34:10;;;;;;;8.35;1.05;;;12.10;99.70;;;;;;6123414;23;20013;-71
2023/04/25 06:36:36;;;;;;;3.25;0.90;;;12.10;99.70;;;;;;6122115;23;20030;-72
2023/04/25 06:39:02;;;;;;;2.22;0.82;;;12.10;99.50;;;;;;6121953;23;20017;-72
2023/04/25 06:41:28;;;;;;;1.92;0.80;;;12.20;99.70;;;;;;6124743;23;20002;-71
2023/04/25 06:43:54;;;;;;;2.78;1.48;;;12.20;99.60;;;;;;6147120;23;19998;-70
2023/04/25 06:46:20;;;;;;;2.08;0.93;;;12.20;99.60;;;;;;6123368;23;20013;-70
2023/04/25 06:48:45;;;;;;;1.17;0.73;;;12.20;99.50;;;;;;6123211;23;20041;-70
2023/04/25 06:51:13;;;;;;;2.58;0.95;;;12.30;99.30;;;;;;6124591;23;20105;-71
2023/04/25 06:53:39;;;;;;;1.50;0.90;;;12.30;99.50;;;;;;6125280;23;20029;-71
2023/04/25 06:56:05;;;;;;;5.47;1.40;;;12.30;99.10;;;;;;6125205;23;20017;-72
2023/04/25 06:58:31;;;;;;;3.03;1.38;;;12.30;99.40;;;;;;6127220;23;20009;-70
2023/04/25 07:00:56;;;;;;;3.05;1.77;;;12.30;99.60;;;;;;6127535;23;20045;-71
2023/04/25 07:03:22;;;;;;;7.68;2.05;;;12.40;99.70;;;;;;6126713;23;20329;-73
2023/04/25 07:05:48;;;;;;;7.05;2.13;;;12.40;99.50;;;;;;6127676;23;20013;-71
2023/04/25 07:08:13;;;;;;;6.03;1.70;;;12.40;99.80;;;;;;6124277;23;20340;-70
2023/04/25 07:10:40;;;;;;;5.78;1.52;;;12.50;99.80;;;;;;6123948;23;20005;-70
2023/04/25 07:13:05;;;;;;;8.00;2.10;;;12.50;99.50;;;;;;6126211;23;20022;-70
2023/04/25 07:15:31;;;;;;;8.90;1.75;;;12.50;99.70;;;;;;6127416;23;20010;-70
2023/04/25 07:17:57;;;;;;;5.13;1.75;;;12.50;99.70;;;;;;6127717;23;19998;-70
2023/04/25 07:20:22;;;;;;;3.85;1.73;;;12.60;99.70;;;;;;6127684;23;20006;-70
2023/04/25 07:22:49;;;;;;;6.18;1.60;;;12.50;99.80;;;;;;6127133;23;20033;-70
2023/04/25 07:25:16;;;;;;;5.47;1.52;;;12.60;99.90;;;;;;6127474;23;20006;-70
2023/04/25 07:27:41;;;;;;;5.95;1.65;;;12.50;99.80;;;;;;6127611;23;20080;-70
2023/04/25 07:30:08;;;;;;;5.97;1.83;;;12.60;99.90;;;;;;6127747;23;20048;-70
2023/04/25 07:32:34;;;;;;;3.38;1.50;;;12.60;99.40;;;;;;6127610;23;20486;-70
2023/04/25 07:34:59;;;;;;;5.22;1.63;;;12.60;99.40;;;;;;6127331;23;20076;-70
2023/04/25 07:37:25;;;;;;;5.50;1.60;;;12.60;99.90;;;;;;6127238;23;20010;-71
2023/04/25 07:39:51;;;;;;;7.63;1.83;;;12.60;99.20;;;;;;6127230;23;19998;-70
2023/04/25 07:42:17;;;;;;;2.85;1.20;;;12.60;98.90;;;;;;6127490;23;20077;-70
2023/04/25 07:44:43;;;;;;;2.65;1.13;;;12.60;98.90;;;;;;6127983;23;20070;-70
2023/04/25 07:47:10;;;;;;;4.43;1.10;;;12.50;99.40;;;;;;6127399;23;20006;-70
2023/04/25 07:49:36;;;;;;;2.80;1.10;;;12.50;99.50;;;;;;6127337;23;19998;-70
2023/04/25 07:52:04;;;;;;;3.35;1.00;;;12.50;99.60;;;;;;6126963;23;20022;-70
2023/04/25 07:54:30;;;;;;;2.08;1.20;;;12.50;99.40;;;;;;6127440;23;20002;-70
2023/04/25 07:56:55;;;;;;;1.80;0.93;;;12.50;99.40;;;;;;6127389;23;20429;-71
2023/04/25 07:59:22;;;;;;;2.55;0.98;;;12.50;99.70;;;;;;6127022;23;19998;-70
2023/04/25 08:01:47;;;;;;;2.38;1.02;;;12.50;99.60;;;;;;6126859;23;20013;-70
2023/04/25 08:04:13;;;;;;;3.60;1.08;;;12.40;99.70;;;;;;6127369;23;20034;-70
2023/04/25 08:06:40;;;;;;;3.33;0.95;;;12.40;99.80;;;;;;6127208;23;19998;-70
2023/04/25 08:09:06;;;;;;;2.63;0.88;;;12.40;99.70;;;;;;6126882;23;20001;-70
2023/04/25 08:11:31;;;;;;;2.38;1.15;;;12.40;99.70;;;;;;6127178;23;20045;-70
2023/04/25 08:13:57;;;;;;;2.20;1.60;;;12.50;99.70;;;;;;6127131;23;20006;-70
2023/04/25 08:16:23;;;;;;;2.58;1.00;;;12.50;99.50;;;;;;6126983;23;20036;-70
2023/04/25 08:18:50;;;;;;;1.15;0.90;;;12.50;99.60;;;;;;6127696;23;20010;-70
2023/04/25 08:21:16;;;;;;;1.52;0.95;;;12.50;99.50;;;;;;6126961;23;20124;-70
2023/04/25 08:23:41;;;;;;;1.63;1.08;;;12.60;99.30;;;;;;6126751;23;20053;-70
2023/04/25 08:26:07;;;;;;;6.22;1.90;;;12.60;99.10;;;;;;6127022;23;20475;-70
2023/04/25 08:28:33;;;;;;;2.67;2.30;;;12.60;99.50;;;;;;6127172;23;20065;-70
2023/04/25 08:30:59;;;;;;;1.42;0.90;;;12.60;99.50;;;;;;6127223;23;20057;-70
2023/04/25 08:33:25;;;;;;;2.97;1.27;;;12.60;99.60;;;;;;6126675;23;20001;-70
2023/04/25 08:35:51;;;;;;;2.65;1.70;;;12.60;99.70;;;;;;6126768;23;20041;-70
2023/04/25 08:38:18;;;;;;;2.22;1.10;;;12.60;99.70;;;;;;6126932;23;20010;-70
2023/04/25 08:40:44;;;;;;;1.13;0.82;;;12.60;99.90;;;;;;6126731;23;20026;-70
2023/04/25 08:43:14;;;;;;;2.15;1.20;;;12.60;99.90;;;;;;6126540;23;20001;-70
2023/04/25 08:45:41;;;;;;;1.60;1.38;;;12.60;99.90;;;;;;6126337;23;20002;-70
2023/04/25 08:48:13;;;;;;;4.95;1.70;;;12.60;99.50;;;;;;6100608;23;20017;-70
2023/04/25 08:50:53;;;;;;;3.15;1.60;;;12.50;99.40;;;;;;6126605;23;20014;-70
2023/04/25 08:53:26;;;;;;;2.67;1.20;;;12.50;99.40;;;;;;6126601;23;20026;-70
2023/04/25 08:55:55;;;;;;;3.45;1.30;;;12.40;99.20;;;;;;6126446;23;20085;-71
2023/04/25 08:58:21;;;;;;;1.60;1.40;;;12.40;99.30;;;;;;6126505;23;20025;-70
2023/04/25 09:00:47;;;;;;;2.25;1.60;;;12.40;99.50;;;;;;6126735;23;20012;-71
2023/04/25 09:03:14;;;;;;;3.25;1.73;;;12.40;99.80;;;;;;6126594;23;20028;-70
2023/04/25 09:05:41;;;;;;;2.90;1.60;;;12.40;99.90;;;;;;6126689;23;20085;-70
2023/04/25 09:08:07;;;;;;;5.38;1.60;;;12.40;99.90;;;;;;6126710;23;20002;-70
2023/04/25 09:10:33;;;;;;;2.05;1.40;;;12.40;99.90;;;;;;6126524;23;20057;-70
2023/04/25 09:13:14;;;;;;;3.08;1.30;;;12.40;99.70;;;;;;6126073;23;20030;-70
2023/04/25 09:15:57;;;;;;;3.05;1.63;;;12.40;99.40;;;;;;6126485;23;20010;-70
2023/04/25 09:18:25;;;;;;;3.90;1.40;;;12.40;99.30;;;;;;6126678;23;20065;-70
2023/04/25 09:20:55;;;;;;;2.03;1.52;;;12.40;99.50;;;;;;6126559;23;20030;-70
2023/04/25 09:23:22;;;;;;;1.88;1.30;;;12.40;99.70;;;;;;6126489;23;20455;-70
2023/04/25 09:25:53;;;;;;;4.95;1.70;;;12.50;99.60;;;;;;6126578;23;20009;-70
2023/04/25 09:28:26;;;;;;;3.80;1.95;;;12.50;99.50;;;;;;6126372;23;20057;-70
2023/04/25 09:30:58;;;;;;;;;;;12.50;99.60;;;;;;6126562;23;20002;-70
2023/04/25 09:33:30;;;;;;;1.92;1.08;;;12.50;99.10;;;;;;6125986;23;19904;-71
2023/04/25 09:36:13;;;;;;;2.28;1.30;;;12.50;98.60;;;;;;6126313;23;20013;-70
2023/04/25 09:38:44;;;;;;;1.08;0.90;;;12.50;98.60;;;;;;6126580;23;20006;-70
2023/04/25 09:41:11;;;;;;;2.75;1.13;;;12.60;98.90;;;;;;6126231;23;20006;-70
2023/04/25 09:43:37;;;;;;;2.85;1.00;;;12.60;98.50;;;;;;6126304;23;20005;-70
2023/04/25 09:46:09;;;;;;;2.10;0.90;;;12.60;98.60;;;;;;6126336;23;20001;-70
2023/04/25 09:48:35;;;;;;;1.75;0.85;;;12.60;98.50;;;;;;6126418;23;20350;-70
2023/04/25 09:51:13;;;;;;;3.83;0.77;;;12.60;98.00;;;;;;6100010;23;20026;-70
2023/04/25 09:53:42;;;;;;;3.22;0.95;;;12.60;98.00;;;;;;6126349;23;20002;-70
2023/04/25 09:56:10;;;;;;;1.00;0.70;;;12.60;97.90;;;;;;6126281;23;20010;-70
2023/04/25 09:58:37;;;;;;;3.72;1.10;;;12.70;98.40;;;;;;6126163;23;20002;-71
2023/04/25 10:01:06;;;;;;;0.98;0.70;;;12.80;98.10;;;;;;6126147;23;19998;-71
2023/04/25 10:03:34;;;;;;;1.85;0.95;;;12.80;98.30;;;;;;6126119;23;20108;-70
2023/04/25 10:06:01;;;;;;;3.28;0.90;;;12.80;97.70;;;;;;6126111;23;20005;-70
2023/04/25 10:08:35;;;;;;;1.48;0.82;;;12.90;97.70;;;;;;6126215;23;20006;-70
2023/04/25 10:11:03;;;;;;;1.60;0.95;;;12.80;97.40;;;;;;6126395;23;20089;-70
2023/04/25 10:13:33;;;;;;;2.08;1.17;;;12.90;97.50;;;;;;6099839;23;20053;-70
2023/04/25 10:16:00;;;;;;;1.10;1.00;;;12.90;97.90;;;;;;6125819;23;20037;-70
2023/04/25 10:18:30;;;;;;;3.80;1.40;;;12.90;97.90;;;;;;6126103;23;20006;-70
2023/04/25 10:21:03;;;;;;;4.35;2.58;;;12.90;97.70;;;;;;6126485;23;20002;-70
2023/04/25 10:23:31;;;;;;;2.47;1.60;;;13.00;98.00;;;;;;6126103;23;19998;-70
2023/04/25 10:25:57;;;;;;;4.05;0.90;;;13.00;97.80;;;;;;6125663;23;20016;-71
2023/04/25 10:28:23;;;;;;;3.67;0.80;;;12.90;96.20;;;;;;6125597;23;19998;-70
2023/04/25 10:31:07;;;;;;;3.13;1.02;;;12.90;96.40;;;;;;6123173;23;20046;-70
2023/04/25 10:33:34;;;;;;;1.38;0.95;;;12.90;97.00;;;;;;6122177;23;20069;-70
2023/04/25 10:36:33;;;;;;;4.68;1.20;;;12.90;96.30;;;;;;6097585;23;20384;-70
2023/04/25 10:39:08;;;;;;;1.83;0.90;;;12.90;96.70;;;;;;6092400;23;20016;-70
2023/04/25 10:42:02;;;;;;;4.45;1.00;;;12.90;96.10;;;;;;6125376;23;20006;-70
2023/04/25 10:44:29;;;;;;;2.60;0.70;;;12.90;96.00;;;;;;6094140;23;20006;-70
2023/04/25 10:47:07;;;;;;;0.90;0.70;;;12.90;96.20;;;;;;6121069;23;20006;-70
2023/04/25 10:49:42;;;;;;;1.83;0.90;;;12.90;96.30;;;;;;6121821;23;20014;-70
2023/04/25 10:52:23;;;;;;;1.65;0.80;;;12.90;95.60;;;;;;6124749;23;20018;-70
2023/04/25 10:54:54;;;;;;;1.23;0.90;;;12.90;96.30;;;;;;6125011;23;20455;-70
2023/04/25 10:57:29;;;;;;;1.40;1.27;;;12.90;96.60;;;;;;6125726;23;20013;-70
2023/04/25 11:00:05;;;;;;;1.58;0.98;;;13.00;96.40;;;;;;6125403;23;20337;-70
2023/04/25 11:02:31;;;;;;;1.27;0.80;;;12.90;96.60;;;;;;6125183;23;20440;-70
2023/04/25 11:04:56;;;;;;;1.90;0.90;;;13.00;96.20;;;;;;6125182;23;20078;-70
2023/04/25 11:07:39;;;;;;;1.73;0.80;;;12.90;95.70;;;;;;6125916;23;20002;-70
2023/04/25 11:10:06;;;;;;;3.67;0.80;;;12.90;96.20;;;;;;6125822;23;20002;-70
2023/04/25 11:12:32;;;;;;;2.97;1.02;;;13.00;96.10;;;;;;6099905;23;20017;-70
2023/04/25 11:15:06;;;;;;;2.00;1.10;;;13.00;96.00;;;;;;6125805;23;20093;-70
2023/04/25 11:17:32;;;;;;;3.30;1.00;;;12.90;96.40;;;;;;6126048;23;20002;-70
2023/04/25 11:19:58;;;;;;;4.07;1.08;;;13.00;96.60;;;;;;6126032;23;20059;-70
2023/04/25 11:22:24;;;;;;;2.22;0.93;;;12.90;96.30;;;;;;6125688;23;20002;-71
2023/04/25 11:24:50;;;;;;;2.28;1.20;;;13.00;96.60;;;;;;6125833;23;20021;-71
2023/04/25 11:27:16;;;;;;;5.40;1.77;;;13.00;96.70;;;;;;6125931;23;20046;-70
2023/04/25 11:29:42;;;;;;;1.95;0.90;;;13.00;96.50;;;;;;6125830;23;20447;-70
2023/04/25 11:32:08;;;;;;;2.80;0.80;;;13.00;96.20;;;;;;6125914;23;20073;-70
2023/04/25 11:34:34;;;;;;;1.80;0.80;;;13.00;95.40;;;;;;6125620;23;19998;-70
2023/04/25 11:37:03;;;;;;;1.63;0.80;;;13.00;95.50;;;;;;6127028;23;20018;-70
2023/04/25 11:39:29;;;;;;;1.40;0.88;;;13.00;95.40;;;;;;6127418;23;20006;-71
2023/04/25 11:41:56;;;;;;;1.23;0.77;;;13.00;95.80;;;;;;6127339;23;20005;-70
2023/04/25 11:44:22;;;;;;;1.25;0.82;;;13.00;95.80;;;;;;6127353;23;20429;-70
2023/04/25 11:46:48;;;;;;;3.38;1.20;;;13.00;96.20;;;;;;6127214;23;20448;-70
2023/04/25 11:49:15;;;;;;;3.65;1.42;;;13.00;96.40;;;;;;6127342;23;20009;-70
2023/04/25 11:51:43;;;;;;;1.13;0.90;;;13.00;96.50;;;;;;6127110;23;20445;-70
2023/04/25 11:54:09;;;;;;;1.80;0.88;;;13.10;96.10;;;;;;6127273;23;20328;-70
2023/04/25 11:56:35;;;;;;;1.50;0.70;;;13.10;95.90;;;;;;6127038;23;20014;-70
2023/04/25 11:59:03;;;;;;;2.95;1.83;;;13.10;96.10;;;;;;6127118;23;20025;-70
2023/04/25 12:01:36;;;;;;;1.85;1.10;;;13.10;96.10;;;;;;6127267;23;20421;-70
2023/04/25 12:04:12;;;;;;;1.58;0.90;;;13.10;95.40;;;;;;6127138;23;20002;-70
2023/04/25 12:06:41;;;;;;;2.53;1.10;;;13.10;95.40;;;;;;6127423;23;20038;-69
2023/04/25 12:09:10;;;;;;;2.30;0.93;;;13.10;95.30;;;;;;6127308;23;20066;-70
2023/04/25 12:11:47;;;;;;;1.98;1.02;;;13.10;95.30;;;;;;6127479;23;20061;-70
2023/04/25 12:14:24;;;;;;;2.10;1.50;;;13.10;95.60;;;;;;6127021;23;20040;-70
2023/04/25 12:16:53;;;;;;;2.30;1.38;;;13.00;95.80;;;;;;6126616;23;20073;-70
2023/04/25 12:19:20;;;;;;;4.80;1.35;;;13.00;95.70;;;;;;6126889;23;20026;-70
2023/04/25 12:21:46;;;;;;;3.00;1.50;;;13.10;96.00;;;;;;6127293;23;20341;-70
2023/04/25 12:24:24;;;;;;;1.30;1.00;;;13.10;95.90;;;;;;6127114;23;20298;-70
2023/04/25 12:27:08;;;;;;;3.97;1.23;;;13.10;95.80;;;;;;6126934;23;20002;-70
2023/04/25 12:29:34;;;;;;;2.60;1.25;;;13.10;95.70;;;;;;6126797;23;20010;-69
2023/04/25 12:32:01;;;;;;;2.10;1.40;;;13.10;95.70;;;;;;6126753;23;20432;-70
2023/04/25 12:34:27;;;;;;;4.00;1.65;;;13.10;95.40;;;;;;6126749;23;20002;-70
2023/04/25 12:36:53;;;;;;;2.28;1.15;;;13.10;95.90;;;;;;6126615;23;20010;-70
2023/04/25 12:39:27;;;;;;;5.55;1.30;;;13.10;95.80;;;;;;6126741;23;20033;-69
2023/04/25 12:41:54;;;;;;;3.28;2.40;;;13.10;96.40;;;;;;6126852;23;20026;-70
2023/04/25 12:44:20;;;;;;;11.23;3.70;;;13.10;96.40;;;;;;6126527;23;20005;-71
2023/04/25 12:46:47;;;;;;;3.28;1.67;;;13.10;96.40;;;;;;6126819;23;20013;-70
2023/04/25 12:49:13;;;;;;;3.95;1.85;;;13.20;96.80;;;;;;6126552;23;20103;-70